Aikoumaru No.8 — JD3288 — position and weather

sailwx.info

Track history (hours):
 
Tides and Currents Weather Stations Pressure Air Temp Water Temp Dewpoint Dewpoint Depression Visibility Wind Speed Wind Dir Waves Ship Positions

Aikoumaru No.8

Last reported at 2016-May-24 22:33 UTC. Time now 2016-May-25 03:15 UTC.
Position N 34°35' E 135°27'.

Length 74 m; draft 4.8 m.

Type: Cargo ship. MMSI: 431003153.

Date/timePositionNaut miles runAvg speedWind from/ knotsBaromVisibWave heightAir tempDewpointWater temp
2016-May-24 22:33N 34°35' E 135°27'1 0.6
2016-May-24 21:22N 34°35' E 135°27'0 0.0
2016-May-24 20:23N 34°35' E 135°27'0 0.0
2016-May-24 19:28N 34°35' E 135°27'0 0.0
2016-May-24 18:29N 34°35' E 135°27'0 0.0
2016-May-24 17:28N 34°35' E 135°27'0 0.0
2016-May-24 16:28N 34°35' E 135°27'0 0.0
2016-May-24 15:28N 34°35' E 135°27'0 0.0
2016-May-24 14:28N 34°35' E 135°27'0 0.0
2016-May-24 13:22N 34°35' E 135°27'0 0.0
2016-May-24 12:28N 34°35' E 135°27'0 0.0
2016-May-24 11:28N 34°35' E 135°27'0 0.0
2016-May-24 10:28N 34°35' E 135°27'0 0.0
2016-May-24 09:28N 34°35' E 135°27'0 0.0
2016-May-24 08:28N 34°35' E 135°27'0 0.0
2016-May-24 07:22N 34°35' E 135°27'0 0.0
2016-May-24 06:28N 34°35' E 135°27'0 0.0
2016-May-24 05:22N 34°35' E 135°27'0 0.0
2016-May-24 00:16N 34°35' E 135°27'0 0.0
2016-May-23 23:32N 34°35' E 135°27'0 0.0
2016-May-23 21:32N 34°35' E 135°27'0 0.0
2016-May-23 19:32N 34°35' E 135°27'0 0.0
2016-May-23 18:25N 34°35' E 135°27'0 0.0
2016-May-23 17:33N 34°35' E 135°27'0 0.0
2016-May-23 16:33N 34°35' E 135°27'0 0.0
2016-May-23 15:07N 34°35' E 135°27'0 0.0
2016-May-23 14:33N 34°35' E 135°27'0 0.0
2016-May-23 13:33N 34°35' E 135°27'0 0.0
2016-May-23 12:32N 34°35' E 135°27'0 0.0
2016-May-23 11:33N 34°35' E 135°27'0 0.0
2016-May-23 10:33N 34°35' E 135°27'0 0.1
2016-May-23 09:33N 34°35' E 135°27'9 8.8
2016-May-23 08:33N 34°32' E 135°17'1111.2
2016-May-23 07:34N 34°24' E 135°09'1110.5
2016-May-23 06:33N 34°14' E 135°03'1410.8
2016-May-23 05:18N 34°00' E 135°02'301 9.5
2016-May-21 21:31N 35°55' E 140°41'1 1.5
2016-May-21 20:33N 35°56' E 140°40'0 0.0
2016-May-20 00:33N 35°55' E 140°40'2 2.1
2016-May-19 23:27N 35°57' E 140°42'0 0.0
2016-May-19 22:06N 35°57' E 140°42'0 0.0
2016-May-19 21:12N 35°57' E 140°42'0 0.1
2016-May-19 20:33N 35°57' E 140°42'0 0.1
2016-May-19 19:33N 35°57' E 140°42'44 1.5
2016-May-18 14:33N 36°39' E 140°57'1111.2
2016-May-18 13:33N 36°29' E 140°52'1211.1
2016-May-18 12:27N 36°17' E 140°51'1011.5
2016-May-18 11:33N 36°06' E 140°52'1111.2
2016-May-18 10:33N 35°55' E 140°54'2210.2
2016-May-18 08:23N 35°34' E 140°47'910.7
2016-May-18 07:33N 35°27' E 140°41'1310.7
2016-May-18 06:22N 35°17' E 140°31'2010.6
2016-May-18 04:30N 35°03' E 140°14'1010.6
2016-May-18 03:32N 34°57' E 140°04'15 9.8
2016-May-18 02:03N 34°51' E 139°47'240 9.8
2016-May-17 01:32N 34°02' E 135°02'1211.9
2016-May-17 00:33N 34°13' E 135°03'1312.4
2016-May-16 23:31N 34°25' E 135°09'1211.6
2016-May-16 22:27N 34°34' E 135°20'7 8.3
2016-May-16 21:33N 34°40' E 135°26'0 0.0
2016-May-16 20:13N 34°40' E 135°26'0 0.0
2016-May-16 19:19N 34°40' E 135°26'0 0.0
2016-May-16 18:25N 34°40' E 135°26'0 0.0
2016-May-16 17:31N 34°40' E 135°26'0 0.0
2016-May-16 16:31N 34°40' E 135°26'0 0.0
2016-May-16 15:25N 34°40' E 135°26'0 0.0
2016-May-16 14:31N 34°40' E 135°26'0 0.0
2016-May-16 13:25N 34°40' E 135°26'0 0.0
2016-May-16 12:31N 34°40' E 135°26'0 0.0
2016-May-16 11:25N 34°40' E 135°26'0 0.0
2016-May-16 10:31N 34°40' E 135°26'0 0.0
2016-May-16 09:31N 34°40' E 135°26'0 0.0
2016-May-16 06:31N 34°40' E 135°26'0 0.0
2016-May-16 05:31N 34°40' E 135°26'0 0.0
2016-May-16 04:31N 34°40' E 135°26'0 0.4
2016-May-16 03:33N 34°39' E 135°26'3 2.8
2016-May-16 02:30N 34°37' E 135°23'0 0.0
2016-May-16 01:24N 34°37' E 135°24'0 0.0
2016-May-16 00:30N 34°37' E 135°24'0 0.1
2016-May-15 23:30N 34°37' E 135°23'0 0.0
2016-May-15 22:18N 34°37' E 135°23'0 0.0
2016-May-15 19:18N 34°37' E 135°23'0 0.0
2016-May-15 18:18N 34°37' E 135°23'0 0.1
2016-May-15 17:30N 34°37' E 135°23'4 4.4
2016-May-15 16:33N 34°34' E 135°27'  
Track history (hours):
 
Tides and Currents Weather Stations Pressure Air Temp Water Temp Dewpoint Dewpoint Depression Visibility Wind Speed Wind Dir Waves Ship Positions

Aikoumaru No.8

Last reported at 2016-May-24 22:33 UTC. Time now 2016-May-25 03:15 UTC.
Position N 34°35' E 135°27'.

Length 74 m; draft 4.8 m.

Type: Cargo ship. MMSI: 431003153.

Date/timePositionNaut miles runAvg speedWind from/ knotsBaromVisibWave heightAir tempDewpointWater temp
2016-May-24 22:33N 34°35' E 135°27'1 0.6
2016-May-24 21:22N 34°35' E 135°27'0 0.0
2016-May-24 20:23N 34°35' E 135°27'0 0.0
2016-May-24 19:28N 34°35' E 135°27'0 0.0
2016-May-24 18:29N 34°35' E 135°27'0 0.0
2016-May-24 17:28N 34°35' E 135°27'0 0.0
2016-May-24 16:28N 34°35' E 135°27'0 0.0
2016-May-24 15:28N 34°35' E 135°27'0 0.0
2016-May-24 14:28N 34°35' E 135°27'0 0.0
2016-May-24 13:22N 34°35' E 135°27'0 0.0
2016-May-24 12:28N 34°35' E 135°27'0 0.0
2016-May-24 11:28N 34°35' E 135°27'0 0.0
2016-May-24 10:28N 34°35' E 135°27'0 0.0
2016-May-24 09:28N 34°35' E 135°27'0 0.0
2016-May-24 08:28N 34°35' E 135°27'0 0.0
2016-May-24 07:22N 34°35' E 135°27'0 0.0
2016-May-24 06:28N 34°35' E 135°27'0 0.0
2016-May-24 05:22N 34°35' E 135°27'0 0.0
2016-May-24 00:16N 34°35' E 135°27'0 0.0
2016-May-23 23:32N 34°35' E 135°27'0 0.0
2016-May-23 21:32N 34°35' E 135°27'0 0.0
2016-May-23 19:32N 34°35' E 135°27'0 0.0
2016-May-23 18:25N 34°35' E 135°27'0 0.0
2016-May-23 17:33N 34°35' E 135°27'0 0.0
2016-May-23 16:33N 34°35' E 135°27'0 0.0
2016-May-23 15:07N 34°35' E 135°27'0 0.0
2016-May-23 14:33N 34°35' E 135°27'0 0.0
2016-May-23 13:33N 34°35' E 135°27'0 0.0
2016-May-23 12:32N 34°35' E 135°27'0 0.0
2016-May-23 11:33N 34°35' E 135°27'0 0.0
2016-May-23 10:33N 34°35' E 135°27'0 0.1
2016-May-23 09:33N 34°35' E 135°27'9 8.8
2016-May-23 08:33N 34°32' E 135°17'1111.2
2016-May-23 07:34N 34°24' E 135°09'1110.5
2016-May-23 06:33N 34°14' E 135°03'1410.8
2016-May-23 05:18N 34°00' E 135°02'301 9.5
2016-May-21 21:31N 35°55' E 140°41'1 1.5
2016-May-21 20:33N 35°56' E 140°40'0 0.0
2016-May-20 00:33N 35°55' E 140°40'2 2.1
2016-May-19 23:27N 35°57' E 140°42'0 0.0
2016-May-19 22:06N 35°57' E 140°42'0 0.0
2016-May-19 21:12N 35°57' E 140°42'0 0.1
2016-May-19 20:33N 35°57' E 140°42'0 0.1
2016-May-19 19:33N 35°57' E 140°42'44 1.5
2016-May-18 14:33N 36°39' E 140°57'1111.2
2016-May-18 13:33N 36°29' E 140°52'1211.1
2016-May-18 12:27N 36°17' E 140°51'1011.5
2016-May-18 11:33N 36°06' E 140°52'1111.2
2016-May-18 10:33N 35°55' E 140°54'2210.2
2016-May-18 08:23N 35°34' E 140°47'910.7
2016-May-18 07:33N 35°27' E 140°41'1310.7
2016-May-18 06:22N 35°17' E 140°31'2010.6
2016-May-18 04:30N 35°03' E 140°14'1010.6
2016-May-18 03:32N 34°57' E 140°04'15 9.8
2016-May-18 02:03N 34°51' E 139°47'240 9.8
2016-May-17 01:32N 34°02' E 135°02'1211.9
2016-May-17 00:33N 34°13' E 135°03'1312.4
2016-May-16 23:31N 34°25' E 135°09'1211.6
2016-May-16 22:27N 34°34' E 135°20'7 8.3
2016-May-16 21:33N 34°40' E 135°26'0 0.0
2016-May-16 20:13N 34°40' E 135°26'0 0.0
2016-May-16 19:19N 34°40' E 135°26'0 0.0
2016-May-16 18:25N 34°40' E 135°26'0 0.0
2016-May-16 17:31N 34°40' E 135°26'0 0.0
2016-May-16 16:31N 34°40' E 135°26'0 0.0
2016-May-16 15:25N 34°40' E 135°26'0 0.0
2016-May-16 14:31N 34°40' E 135°26'0 0.0
2016-May-16 13:25N 34°40' E 135°26'0 0.0
2016-May-16 12:31N 34°40' E 135°26'0 0.0
2016-May-16 11:25N 34°40' E 135°26'0 0.0
2016-May-16 10:31N 34°40' E 135°26'0 0.0
2016-May-16 09:31N 34°40' E 135°26'0 0.0
2016-May-16 06:31N 34°40' E 135°26'0 0.0
2016-May-16 05:31N 34°40' E 135°26'0 0.0
2016-May-16 04:31N 34°40' E 135°26'0 0.4
2016-May-16 03:33N 34°39' E 135°26'3 2.8
2016-May-16 02:30N 34°37' E 135°23'0 0.0
2016-May-16 01:24N 34°37' E 135°24'0 0.0
2016-May-16 00:30N 34°37' E 135°24'0 0.1
2016-May-15 23:30N 34°37' E 135°23'0 0.0
2016-May-15 22:18N 34°37' E 135°23'0 0.0
2016-May-15 19:18N 34°37' E 135°23'0 0.0
2016-May-15 18:18N 34°37' E 135°23'0 0.1
2016-May-15 17:30N 34°37' E 135°23'4 4.4
2016-May-15 16:33N 34°34' E 135°27'  

Dump ship's entire track history